aviador You're here:

PAMH Decoded Metar

MINCHUMINA in AK, USA
Report Time2018-05-21 15:56:00
UTC Time2018-05-21 16:51:23
Flight Rules vfr VFR
WindCalm
Visibility9999 m
Phenomena:Light Rain
Clouds:Scattered 065 Hf
Overcast 080 Hf
Expected CloudBase > 1,600 ft AGL from Temp-Dew spread
Ceiling8,000 ft
Temp06°C (ISA -8)
Dew Point02°C (76% RH)
AAT4.3°C
QNH995 hPa
Density Alt502 ft
Elevation702 ft
Report Wrong Elevation
Raw Report
PAMH 211556Z AUTO 00000KT 10SM -RA SCT065 OVC080 06/02 A2937 RMK
AO2 RAB1459 SLP792 P0000 T00560017=

Extra information for PAMH:More info

Metar Taf Metar & Taf Last 4 Metars F.Rules Stats Wind Profile Meteogram Temp Stats Airport Information Weather charts Add Link Nearby VenuesMetar ALERT Operation Metar Decoded Social comments

AIRNAV info for PAMH